Data for 12/31/2006

Time Sea-Level Adjusted Pressure Absolute Pressure Temperature Relative Humidity Dew Point   
(mb) (inHg) (mb) (inHg) (C) (F) (%) (C) (F)
00:05 1026 30.3 855 25.25 -10.4 13.4 85 -12.4 9.7
00:10 1025 30.27 855 25.25 -10.5 13.1 86 -12.4 9.6
00:15 1025 30.27 855 25.25 -10.8 12.6 89 -12.3 9.9
00:20 1025 30.27 854 25.22 -10.7 12.7 89 -12.1 10.1
00:25 1025 30.27 854 25.22 -10.2 13.7 87 -11.9 10.5
00:30 1025 30.27 854 25.22 -10 14 86 -11.9 10.6
00:35 1025 30.27 854 25.22 -9.9 14.2 86 -11.8 10.8
00:40 1025 30.27 854 25.22 -10 14 86 -11.9 10.5
00:45 1025 30.27 854 25.22 -10.4 13.3 87 -12.1 10.1
00:50 1025 30.27 854 25.22 -10.8 12.6 86 -12.7 9.2
00:55 1025 30.27 854 25.22 -11.1 12 87 -12.8 8.9
01:00 1025 30.27 854 25.22 -11.2 11.9 88 -12.8 8.9
01:05 1025 30.27 854 25.22 -11.2 11.8 88 -12.8 9
01:10 1025 30.27 854 25.22 -11.1 12 87 -12.8 8.9
01:15 1025 30.27 854 25.22 -11 12.3 88 -12.6 9.3
01:20 1025 30.27 854 25.22 -10.7 12.7 87 -12.5 9.5
01:25 1025 30.27 854 25.22 -10.8 12.5 87 -12.6 9.2
01:30 1024 30.24 854 25.22 -11 12.1 88 -12.7 9.2
01:35 1024 30.24 854 25.22 -11.1 11.9 88 -12.8 9
01:40 1024 30.24 854 25.22 -10.9 12.4 88 -12.6 9.4
01:45 1024 30.24 854 25.22 -10.5 13.1 87 -12.3 9.8
01:50 1024 30.24 854 25.22 -10.2 13.6 86 -12.2 10.1
01:55 1024 30.24 854 25.22 -10 14 85 -12.1 10.3
02:00 1024 30.24 854 25.22 -10 14 85 -12 10.4
02:05 1024 30.24 854 25.22 -9.9 14.2 85 -12 10.4
02:10 1024 30.24 853 25.19 -9.8 14.4 85 -11.9 10.6
02:15 1024 30.24 853 25.19 -9.8 14.3 85 -11.9 10.6
02:20 1024 30.24 853 25.19 -9.9 14.3 85 -12 10.5
02:25 1024 30.24 853 25.19 -9.9 14.2 84 -12.1 10.2
02:30 1024 30.24 853 25.19 -10 14 85 -12.1 10.2
02:35 1024 30.24 853 25.19 -10 13.9 85 -12.1 10.2
02:40 1024 30.24 853 25.19 -10.1 13.9 85 -12.2 10.1
02:45 1024 30.24 853 25.19 -10 14 84 -12.2 10.1
02:50 1024 30.24 853 25.19 -10.2 13.7 84 -12.3 9.8
02:55 1024 30.24 853 25.19 -10.4 13.3 86 -12.4 9.7
03:00 1024 30.24 853 25.19 -10.5 13.1 86 -12.4 9.7
03:05 1023 30.21 853 25.19 -10.2 13.7 85 -12.3 9.9
03:10 1023 30.21 853 25.19 -9.9 14.2 85 -12 10.4
03:15 1023 30.21 853 25.19 -9.6 14.7 84 -11.9 10.6
03:20 1023 30.21 852 25.16 -9.4 15.1 83 -11.8 10.8
03:25 1023 30.21 852 25.16 -9.2 15.5 82 -11.7 10.9
03:30 1023 30.21 852 25.16 -9.5 15 82 -12 10.5
03:35 1023 30.21 852 25.16 -9.3 15.4 82 -11.7 10.9
03:40 1023 30.21 852 25.16 -8.6 16.6 80 -11.4 11.5
03:45 1023 30.21 852 25.16 -8.6 16.5 78 -11.7 10.9
03:50 1023 30.21 852 25.16 -9.5 14.9 82 -12 10.5
03:55 1023 30.21 852 25.16 -9.9 14.3 84 -12.1 10.2
04:00 1023 30.21 852 25.16 -10.5 13 86 -12.5 9.5
04:05 1023 30.21 852 25.16 -11.2 11.9 87 -12.9 8.8
04:10 1023 30.21 852 25.16 -11.6 11.2 88 -13.2 8.2
04:15 1023 30.21 852 25.16 -11.8 10.8 88 -13.4 7.9
04:20 1023 30.21 852 25.16 -11.9 10.6 89 -13.4 7.9
04:25 1023 30.21 852 25.16 -11.7 11 88 -13.3 8.1
04:30 1023 30.21 852 25.16 -11.7 11 87 -13.5 7.8
04:35 1023 30.21 852 25.16 -11.7 11 87 -13.4 7.9
04:40 1023 30.21 852 25.16 -11.9 10.6 88 -13.5 7.7
04:45 1023 30.21 852 25.16 -11.9 10.6 89 -13.3 8
04:50 1023 30.21 852 25.16 -11.8 10.8 90 -13.1 8.4
04:55 1023 30.21 852 25.16 -11.7 11 90 -13 8.7
05:00 1023 30.21 852 25.16 -11.3 11.7 91 -12.5 9.5
05:05 1023 30.21 852 25.16 -11.2 11.8 86 -13.1 8.4
05:10 1023 30.21 852 25.16 -11.5 11.3 87 -13.3 8.1
05:15 1023 30.21 852 25.16 -11.8 10.7 88 -13.4 7.8
05:20 1023 30.21 852 25.16 -11.9 10.6 89 -13.4 7.9
05:25 1023 30.21 852 25.16 -11.9 10.6 89 -13.4 7.9
05:30 1023 30.21 852 25.16 -11.9 10.5 91 -13.1 8.4
05:35 1023 30.21 852 25.16 -12.1 10.3 91 -13.2 8.2
05:40 1023 30.21 852 25.16 -12.1 10.3 93 -12.9 8.7
05:45 1023 30.21 852 25.16 -11.7 10.9 94 -12.6 9.4
05:50 1023 30.21 852 25.16 -11.3 11.6 93 -12.2 10
05:55 1023 30.21 852 25.16 -11.3 11.7 91 -12.5 9.5
06:00 1023 30.21 852 25.16 -11.5 11.3 93 -12.4 9.6
06:05 1023 30.21 852 25.16 -11.4 11.5 92 -12.4 9.6
06:10 1023 30.21 852 25.16 -11.6 11.2 89 -13.1 8.5
06:15 1023 30.21 852 25.16 -12.1 10.3 92 -13.1 8.3
06:20 1023 30.21 852 25.16 -12.2 10 93 -13.2 8.3
06:25 1023 30.21 852 25.16 -12.2 10 93 -13.1 8.5
06:30 1022 30.18 852 25.16 -11.8 10.7 93 -12.7 9.1
06:35 1022 30.18 852 25.16 -11.6 11.1 91 -12.7 9.1
06:40 1022 30.18 851 25.13 -11.3 11.6 90 -12.7 9.1
06:45 1022 30.18 851 25.13 -11.6 11.1 90 -12.9 8.8
06:50 1022 30.18 852 25.16 -11.5 11.3 90 -12.8 9
06:55 1022 30.18 852 25.16 -11.2 11.9 89 -12.7 9.2
07:00 1022 30.18 852 25.16 -11 12.2 87 -12.8 8.9
07:05 1022 30.18 852 25.16 -11.4 11.5 87 -13.2 8.3
07:10 1023 30.21 852 25.16 -11.8 10.8 88 -13.4 7.9
07:15 1023 30.21 852 25.16 -11.8 10.8 89 -13.3 8.1
07:20 1023 30.21 852 25.16 -11.6 11.2 88 -13.2 8.3
07:25 1023 30.21 852 25.16 -11.5 11.4 88 -13.1 8.4
07:30 1023 30.21 852 25.16 -11.4 11.4 88 -13 8.6
07:35 1023 30.21 852 25.16 -11.2 11.9 88 -12.8 9
07:40 1023 30.21 852 25.16 -10.9 12.3 87 -12.7 9.1
07:45 1023 30.21 852 25.16 -10.9 12.4 87 -12.7 9.2
07:50 1023 30.21 852 25.16 -10.7 12.7 84 -12.9 8.9
07:55 1023 30.21 852 25.16 -10.8 12.6 86 -12.7 9.1
08:00 1023 30.21 852 25.16 -10.8 12.5 85 -12.9 8.7
08:05 1023 30.21 852 25.16 -10.9 12.5 85 -12.9 8.7
08:10 1023 30.21 852 25.16 -10.9 12.4 84 -13 8.6
08:15 1023 30.21 852 25.16 -11 12.1 86 -13 8.6
08:20 1023 30.21 852 25.16 -11.2 11.8 86 -13.2 8.2
08:25 1023 30.21 852 25.16 -11.7 10.9 88 -13.4 8
08:30 1023 30.21 852 25.16 -12.2 10.1 89 -13.6 7.6
08:35 1023 30.21 852 25.16 -12 10.4 90 -13.3 8
08:40 1023 30.21 852 25.16 -11.5 11.4 89 -13 8.7
08:45 1023 30.21 852 25.16 -10.8 12.6 86 -12.6 9.3
08:50 1023 30.21 852 25.16 -10.4 13.3 85 -12.5 9.6
08:55 1023 30.21 852 25.16 -10.1 13.9 84 -12.3 9.8
09:00 1023 30.21 852 25.16 -9.8 14.4 84 -12 10.4
09:05 1023 30.21 852 25.16 -9.9 14.2 83 -12.3 9.8
09:10 1023 30.21 852 25.16 -10.5 13.1 84 -12.7 9.1
09:15 1023 30.21 852 25.16 -10.8 12.6 85 -12.8 8.9
09:20 1023 30.21 852 25.16 -10.7 12.7 85 -12.8 9
09:25 1023 30.21 852 25.16 -10.4 13.3 85 -12.4 9.6
09:30 1023 30.21 852 25.16 -9.9 14.1 84 -12.1 10.2
09:35 1023 30.21 852 25.16 -9.5 14.8 83 -11.9 10.6
09:40 1023 30.21 852 25.16 -9.2 15.5 82 -11.7 11
09:45 1023 30.21 852 25.16 -8.9 16 81 -11.6 11.2
09:50 1023 30.21 852 25.16 -8.5 16.6 79 -11.5 11.2
09:55 1023 30.21 852 25.16 -8.5 16.8 79 -11.4 11.4
10:00 1023 30.21 852 25.16 -8.8 16.2 81 -11.5 11.3
10:05 1023 30.21 852 25.16 -9 15.8 83 -11.4 11.5
10:10 1023 30.21 852 25.16 -8.9 16 83 -11.4 11.6
10:15 1023 30.21 852 25.16 -8.8 16.2 83 -11.1 12
10:20 1022 30.18 852 25.16 -8.5 16.8 82 -11 12.2
10:25 1022 30.18 852 25.16 -8.1 17.4 82 -10.7 12.7
10:30 1022 30.18 851 25.13 -7.8 17.9 82 -10.4 13.3
10:35 1022 30.18 851 25.13 -7.7 18.1 81 -10.5 13.2
10:40 1022 30.18 851 25.13 -7.5 18.5 80 -10.3 13.4
10:45 1022 30.18 851 25.13 -7.2 19 80 -10.1 13.8
10:50 1022 30.18 851 25.13 -7.1 19.1 80 -10 14
10:55 1022 30.18 851 25.13 -6.9 19.5 78 -10.1 13.8
11:00 1022 30.18 851 25.13 -6.7 20 77 -10 14
11:05 1022 30.18 851 25.13 -6.4 20.6 76 -10 14
11:10 1022 30.18 851 25.13 -6.1 21.1 74 -10 14
11:15 1021 30.15 851 25.13 -6 21.3 74 -9.8 14.3
11:20 1021 30.15 851 25.13 -6 21.2 75 -9.8 14.4
11:25 1021 30.15 850 25.1 -5.7 21.7 75 -9.4 15.1
11:30 1021 30.15 850 25.1 -5.3 22.4 74 -9.2 15.4
11:35 1021 30.15 850 25.1 -5.4 22.4 74 -9.3 15.2
11:40 1021 30.15 850 25.1 -5.4 22.2 74 -9.3 15.3
11:45 1021 30.15 850 25.1 -5.5 22.1 75 -9.2 15.4
11:50 1021 30.15 850 25.1 -5.9 21.4 76 -9.4 15
11:55 1021 30.15 850 25.1 -6.3 20.7 76 -9.8 14.3
12:00 1021 30.15 850 25.1 -6.5 20.4 76 -10 14
12:05 1021 30.15 850 25.1 -6.8 19.7 78 -10 14
12:10 1021 30.15 850 25.1 -6.9 19.6 78 -10.2 13.7
12:15 1021 30.15 850 25.1 -7 19.4 78 -10.2 13.6
12:20 1021 30.15 850 25.1 -7.1 19.1 78 -10.3 13.5
12:25 1021 30.15 850 25.1 -7.1 19.2 78 -10.3 13.4
12:30 1021 30.15 850 25.1 -7.3 19 77 -10.6 12.9
12:35 1021 30.15 851 25.13 -7.3 18.8 78 -10.5 13.1
12:40 1021 30.15 851 25.13 -7.3 18.8 79 -10.3 13.5
12:45 1021 30.15 851 25.13 -7.7 18.2 80 -10.5 13.1
12:50 1021 30.15 851 25.13 -8.2 17.3 82 -10.7 12.8
12:55 1021 30.15 851 25.13 -7.9 17.7 81 -10.6 12.9
13:00 1021 30.15 851 25.13 -7.9 17.8 81 -10.6 12.9
13:05 1021 30.15 851 25.13 -8.2 17.2 83 -10.6 13
13:10 1021 30.15 851 25.13 -8.5 16.6 85 -10.6 12.9
13:15 1021 30.15 851 25.13 -8.6 16.5 87 -10.4 13.2
13:20 1021 30.15 851 25.13 -8.3 17.2 85 -10.3 13.5
13:25 1021 30.15 850 25.1 -8.2 17.3 84 -10.4 13.3
13:30 1021 30.15 850 25.1 -7.5 18.4 82 -10.1 13.8
13:35 1021 30.15 850 25.1 -7.2 19 80 -10.1 13.9
13:40 1021 30.15 850 25.1 -7.2 19 77 -10.6 13
13:45 1021 30.15 850 25.1 -7.3 18.8 80 -10.2 13.7
13:50 1021 30.15 850 25.1 -7.2 19 81 -10 14.1
13:55 1021 30.15 850 25.1 -7.3 18.8 81 -10.1 13.9
14:00 1021 30.15 850 25.1 -7.2 19 78 -10.4 13.2
14:05 1021 30.15 850 25.1 -6.9 19.6 79 -10 14.1
14:10 1021 30.15 850 25.1 -6.8 19.7 81 -9.6 14.7
14:15 1021 30.15 850 25.1 -6.5 20.3 79 -9.6 14.7
14:20 1020 30.12 850 25.1 -6.6 20.1 80 -9.6 14.7
14:25 1020 30.12 850 25.1 -6.8 19.8 79 -9.9 14.2
14:30 1021 30.15 850 25.1 -6.7 19.9 79 -9.8 14.3
14:35 1020 30.12 850 25.1 -6.6 20.1 77 -10 14
14:40 1020 30.12 850 25.1 -6.7 20 78 -9.9 14.1
14:45 1020 30.12 850 25.1 -6.6 20.2 77 -9.9 14.2
14:50 1020 30.12 850 25.1 -6.4 20.5 77 -9.8 14.4
14:55 1020 30.12 850 25.1 -6.3 20.7 78 -9.6 14.8
15:00 1020 30.12 850 25.1 -6.3 20.7 77 -9.6 14.7
15:05 1020 30.12 850 25.1 -6.1 21 77 -9.5 14.9
15:10 1020 30.12 850 25.1 -5.8 21.6 76 -9.3 15.2
15:15 1020 30.12 850 25.1 -5.6 21.9 77 -9 15.7
15:20 1020 30.12 850 25.1 -5.4 22.4 75 -9.1 15.7
15:25 1020 30.12 850 25.1 -5.2 22.6 74 -9.2 15.5
15:30 1020 30.12 850 25.1 -5.3 22.5 76 -9 15.9
15:35 1020 30.12 849 25.07 -5.4 22.4 75 -9 15.7
15:40 1020 30.12 849 25.07 -5.4 22.3 77 -8.9 16
15:45 1020 30.12 849 25.07 -5.4 22.4 78 -8.7 16.4
15:50 1020 30.12 849 25.07 -5.4 22.3 79 -8.5 16.6
15:55 1020 30.12 849 25.07 -5.4 22.4 78 -8.6 16.6
16:00 1020 30.12 849 25.07 -5.5 22.1 80 -8.4 16.8
16:05 1020 30.12 849 25.07 -5.4 22.2 79 -8.5 16.7
16:10 1020 30.12 849 25.07 -5.4 22.4 79 -8.4 16.9
16:15 1020 30.12 849 25.07 -5.3 22.5 78 -8.5 16.6
16:20 1020 30.12 849 25.07 -5.2 22.7 78 -8.5 16.7
16:25 1020 30.12 849 25.07 -5.1 22.8 78 -8.3 17
16:30 1020 30.12 849 25.07 -5.1 22.9 78 -8.4 17
16:35 1020 30.12 849 25.07 -4.9 23.1 76 -8.5 16.7
16:40 1020 30.12 849 25.07 -5.1 22.8 78 -8.4 16.9
16:45 1020 30.12 849 25.07 -5 23 77 -8.4 17
16:50 1020 30.12 849 25.07 -5.1 22.8 78 -8.4 16.9
16:55 1020 30.12 849 25.07 -5.4 22.3 78 -8.6 16.5
17:00 1020 30.12 849 25.07 -5.5 22.1 79 -8.6 16.5
17:05 1020 30.12 849 25.07 -5.5 22 80 -8.5 16.7
17:10 1020 30.12 849 25.07 -5.5 22.2 79 -8.6 16.6
17:15 1020 30.12 849 25.07 -5.3 22.4 79 -8.4 16.9
17:20 1020 30.12 849 25.07 -5.3 22.5 76 -8.9 15.9
17:25 1020 30.12 849 25.07 -5.2 22.7 77 -8.5 16.6
17:30 1020 30.12 849 25.07 -5.1 22.9 77 -8.6 16.5
17:35 1020 30.12 849 25.07 -5 22.9 77 -8.5 16.7
17:40 1020 30.12 849 25.07 -5 23 78 -8.4 17
17:45 1020 30.12 849 25.07 -5 23 74 -8.9 16
17:50 1020 30.12 849 25.07 -5.1 22.8 76 -8.7 16.3
17:55 1020 30.12 849 25.07 -5.2 22.6 76 -8.7 16.3
18:00 1020 30.12 849 25.07 -5.1 22.7 79 -8.2 17.2
18:05 1020 30.12 849 25.07 -5.2 22.6 82 -7.8 17.9
18:10 1020 30.12 849 25.07 -5.4 22.2 83 -7.9 17.8
18:15 1020 30.12 849 25.07 -5.5 22.1 83 -7.9 17.7
18:20 1020 30.12 849 25.07 -5.4 22.3 83 -7.9 17.9
18:25 1020 30.12 849 25.07 -5.4 22.3 83 -7.9 17.8
18:30 1020 30.12 849 25.07 -5.4 22.3 83 -7.9 17.8
18:35 1020 30.12 849 25.07 -5.5 22.1 83 -7.9 17.8
18:40 1020 30.12 849 25.07 -5.5 22.2 82 -8 17.6
18:45 1020 30.12 849 25.07 -5.4 22.4 82 -7.9 17.7
18:50 1020 30.12 849 25.07 -5.3 22.4 83 -7.8 17.9
18:55 1020 30.12 849 25.07 -5.4 22.3 83 -7.9 17.9
19:00 1020 30.12 849 25.07 -5.4 22.2 82 -8 17.7
19:05 1020 30.12 849 25.07 -5.5 22.1 83 -8 17.5
19:10 1020 30.12 849 25.07 -5.6 21.9 83 -8.1 17.4
19:15 1020 30.12 849 25.07 -5.8 21.6 83 -8.2 17.2
19:20 1020 30.12 849 25.07 -5.9 21.4 83 -8.3 17.1
19:25 1020 30.12 850 25.1 -6.1 21.1 84 -8.3 17.1
19:30 1020 30.12 850 25.1 -6.3 20.6 84 -8.5 16.6
19:35 1020 30.12 850 25.1 -6.7 20 86 -8.6 16.6
19:40 1020 30.12 850 25.1 -6.7 20 87 -8.6 16.6
19:45 1020 30.12 850 25.1 -6.6 20.1 86 -8.6 16.5
19:50 1020 30.12 850 25.1 -6.5 20.2 86 -8.5 16.6
19:55 1020 30.12 850 25.1 -6.3 20.6 84 -8.5 16.6
20:00 1020 30.12 850 25.1 -6.3 20.7 84 -8.6 16.5
20:05 1020 30.12 850 25.1 -6.3 20.6 83 -8.7 16.3
20:10 1020 30.12 850 25.1 -6.5 20.3 84 -8.7 16.3
20:15 1021 30.15 850 25.1 -6.4 20.4 84 -8.7 16.3
20:20 1021 30.15 850 25.1 -6.5 20.3 84 -8.8 16.2
20:25 1021 30.15 850 25.1 -6.6 20.2 85 -8.7 16.3
20:30 1021 30.15 850 25.1 -6.6 20 85 -8.8 16.1
20:35 1021 30.15 850 25.1 -7.1 19.3 87 -8.9 15.9
20:40 1021 30.15 850 25.1 -7.2 19 88 -8.9 15.9
20:45 1021 30.15 850 25.1 -6.9 19.5 86 -9 15.9
20:50 1021 30.15 850 25.1 -6.8 19.8 85 -8.9 15.9
20:55 1021 30.15 850 25.1 -6.7 19.9 85 -8.8 16.1
21:00 1021 30.15 850 25.1 -6.8 19.7 87 -8.7 16.3
21:05 1021 30.15 850 25.1 -6.8 19.8 86 -8.7 16.4
21:10 1021 30.15 850 25.1 -6.7 19.9 86 -8.7 16.3
21:15 1021 30.15 850 25.1 -6.8 19.8 86 -8.7 16.3
21:20 1021 30.15 850 25.1 -6.9 19.6 87 -8.8 16.2
21:25 1021 30.15 850 25.1 -6.9 19.6 87 -8.7 16.3
21:30 1021 30.15 850 25.1 -7 19.5 88 -8.7 16.4
21:35 1021 30.15 850 25.1 -7.2 19.1 89 -8.7 16.3
21:40 1021 30.15 850 25.1 -7.2 19 90 -8.6 16.5
21:45 1021 30.15 850 25.1 -7.2 19 90 -8.6 16.5
21:50 1021 30.15 850 25.1 -7.2 19 90 -8.7 16.4
21:55 1021 30.15 850 25.1 -7.1 19.2 89 -8.7 16.4
22:00 1021 30.15 850 25.1 -6.9 19.5 88 -8.7 16.4
22:05 1021 30.15 850 25.1 -7 19.5 88 -8.7 16.4
22:10 1021 30.15 850 25.1 -7.1 19.1 88 -8.8 16.1
22:15 1021 30.15 850 25.1 -7.3 18.9 89 -8.8 16.2
22:20 1021 30.15 850 25.1 -7.5 18.5 91 -8.8 16.2
22:25 1021 30.15 850 25.1 -7.6 18.4 91 -8.9 16.1
22:30 1021 30.15 850 25.1 -7.6 18.4 91 -8.8 16.1
22:35 1021 30.15 850 25.1 -7.6 18.3 89 -9.1 15.6
22:40 1021 30.15 850 25.1 -7.6 18.4 89 -9.1 15.7
22:45 1021 30.15 850 25.1 -7.5 18.5 89 -9.1 15.6
22:50 1021 30.15 850 25.1 -7.5 18.4 89 -9.1 15.6
22:55 1021 30.15 850 25.1 -7.7 18.2 89 -9.2 15.4
23:00 1021 30.15 850 25.1 -7.6 18.3 88 -9.2 15.4
23:05 1021 30.15 850 25.1 -7.6 18.4 87 -9.4 15.1
23:10 1021 30.15 850 25.1 -7.7 18.1 85 -9.7 14.5
23:15 1021 30.15 850 25.1 -7.6 18.3 85 -9.7 14.5
23:20 1021 30.15 850 25.1 -7.6 18.4 85 -9.7 14.5
23:25 1021 30.15 850 25.1 -7.9 17.7 85 -10.1 13.9
23:30 1021 30.15 850 25.1 -8.3 17.1 85 -10.4 13.3
23:35 1021 30.15 850 25.1 -8.2 17.2 84 -10.4 13.3
23:40 1021 30.15 850 25.1 -7.7 18.2 83 -10 14
23:45 1021 30.15 850 25.1 -7.5 18.5 83 -9.8 14.3
23:50 1021 30.15 850 25.1 -7.3 18.8 83 -9.7 14.5
23:55 1021 30.15 850 25.1 -7.3 18.9 83 -9.7 14.5
24:00 1021 30.15 850 25.1 -7.5 18.5 82 -10 14